This is the latest recevied weather packets stored in our database for station/object IK0OZB-10. If no packets are shown the sender has not sent any weather packets the latest 10 day(s).
| Time | Temp. | Humidity | Pressure | Rain* | Wind** | Luminosity | Snow |
|---|---|---|---|---|---|---|---|
| 1777667404 | 17.22° C | 42% | 1023.1 hPa | - | - | - | - |
| 1777666504 | 17.22° C | 49% | 1023.1 hPa | - | - | - | - |
| 1777665604 | 16.67° C | 55% | 1023 hPa | - | - | - | - |
| 1777664704 | 16.67° C | 58% | 1022.8 hPa | - | - | - | - |
| 1777663804 | 16.67° C | 59% | 1022.4 hPa | - | - | - | - |
| 1777662904 | 17.22° C | 59% | 1022.5 hPa | - | - | - | - |
| 1777662003 | 17.78° C | 59% | 1022.3 hPa | - | - | - | - |
| 1777661103 | 17.78° C | 59% | 1022.1 hPa | - | - | - | - |
| 1777660203 | 18.33° C | 56% | 1021.9 hPa | - | - | - | - |
| 1777659303 | 18.89° C | 54% | 1021.7 hPa | - | - | - | - |
| 1777658403 | 19.44° C | 52% | 1021.4 hPa | - | - | - | - |
| 1777657503 | 19.44° C | 52% | 1021.3 hPa | - | - | - | - |
| 1777656603 | 19.44° C | 51% | 1021 hPa | - | - | - | - |
| 1777655702 | 20.56° C | 48% | 1020.9 hPa | - | - | - | - |
| 1777654802 | 21.11° C | 45% | 1020.7 hPa | - | - | - | - |
| 1777653902 | 21.67° C | 43% | 1020.5 hPa | - | - | - | - |
| 1777653002 | 21.67° C | 42% | 1020.7 hPa | - | - | - | - |
| 1777652102 | 22.78° C | 43% | 1020.5 hPa | - | - | - | - |
| 1777651202 | 22.78° C | 42% | 1020.7 hPa | - | - | - | - |
| 1777650302 | 22.78° C | 43% | 1020.6 hPa | - | - | - | - |
| 1777649401 | 22.78° C | 45% | 1020.7 hPa | - | - | - | - |
| 1777648501 | 23.33° C | 44% | 1020.8 hPa | - | - | - | - |
| 1777647601 | 23.33° C | 46% | 1020.8 hPa | - | - | - | - |
| 1777646701 | 22.78° C | 45% | 1020.9 hPa | - | - | - | - |
| 1777645801 | 21.67° C | 47% | 1021 hPa | - | - | - | - |
* Rain since midnight (hover to see other rain measurements)
** Current wind speed in m/s (hover to see current wind gust speed)